sensor_id;sensor_type;location;lat;lon;timestamp;pressure;altitude;pressure_sealevel;temperature;humidity
76022;BME280;64718;52.124;6.226;2023-02-22T00:00:54;101586.63;;;6.84;100.00
76022;BME280;64718;52.124;6.226;2023-02-22T00:03:26;101576.25;;;6.86;100.00
76022;BME280;64718;52.124;6.226;2023-02-22T00:05:55;101578.03;;;6.82;100.00
76022;BME280;64718;52.124;6.226;2023-02-22T00:08:25;101573.69;;;6.84;100.00
76022;BME280;64718;52.124;6.226;2023-02-22T00:10:54;101569.44;;;6.80;100.00
76022;BME280;64718;52.124;6.226;2023-02-22T00:13:23;101562.53;;;6.81;100.00
76022;BME280;64718;52.124;6.226;2023-02-22T00:15:49;101550.47;;;6.81;100.00
76022;BME280;64718;52.124;6.226;2023-02-22T00:18:17;101557.34;;;6.82;100.00
76022;BME280;64718;52.124;6.226;2023-02-22T00:20:44;101553.97;;;6.79;100.00
76022;BME280;64718;52.124;6.226;2023-02-22T00:23:14;101553.19;;;6.74;100.00
76022;BME280;64718;52.124;6.226;2023-02-22T00:25:43;101557.44;;;6.76;100.00
76022;BME280;64718;52.124;6.226;2023-02-22T00:28:10;101549.66;;;6.78;100.00
76022;BME280;64718;52.124;6.226;2023-02-22T00:30:38;101548.84;;;6.76;100.00
76022;BME280;64718;52.124;6.226;2023-02-22T00:33:08;101556.50;;;6.82;100.00
76022;BME280;64718;52.124;6.226;2023-02-22T00:35:35;101548.72;;;6.82;100.00
76022;BME280;64718;52.124;6.226;2023-02-22T00:38:02;101564.28;;;6.80;100.00
76022;BME280;64718;52.124;6.226;2023-02-22T00:40:31;101553.94;;;6.80;100.00
76022;BME280;64718;52.124;6.226;2023-02-22T00:42:59;101551.34;;;6.80;100.00
76022;BME280;64718;52.124;6.226;2023-02-22T00:45:27;101545.31;;;6.80;100.00
76022;BME280;64718;52.124;6.226;2023-02-22T00:47:57;101547.94;;;6.77;100.00
76022;BME280;64718;52.124;6.226;2023-02-22T00:50:27;101541.88;;;6.79;100.00
76022;BME280;64718;52.124;6.226;2023-02-22T00:52:55;101544.47;;;6.79;100.00
76022;BME280;64718;52.124;6.226;2023-02-22T00:55:24;101548.66;;;6.86;100.00
76022;BME280;64718;52.124;6.226;2023-02-22T00:57:52;101542.75;;;6.80;100.00
76022;BME280;64718;52.124;6.226;2023-02-22T01:00:23;101561.72;;;6.79;100.00
76022;BME280;64718;52.124;6.226;2023-02-22T01:02:50;101558.28;;;6.77;100.00
76022;BME280;64718;52.124;6.226;2023-02-22T01:05:21;101557.34;;;6.82;100.00
76022;BME280;64718;52.124;6.226;2023-02-22T01:07:48;101541.81;;;6.84;100.00
76022;BME280;64718;52.124;6.226;2023-02-22T01:10:17;101541.88;;;6.79;100.00
76022;BME280;64718;52.124;6.226;2023-02-22T01:12:44;101537.56;;;6.80;100.00
76022;BME280;64718;52.124;6.226;2023-02-22T01:15:12;101543.59;;;6.80;100.00
76022;BME280;64718;52.124;6.226;2023-02-22T01:17:39;101543.63;;;6.77;100.00
76022;BME280;64718;52.124;6.226;2023-02-22T01:20:09;101534.19;;;6.75;100.00
76022;BME280;64718;52.124;6.226;2023-02-22T01:22:40;101536.00;;;6.70;100.00
76022;BME280;64718;52.124;6.226;2023-02-22T01:25:07;101521.38;;;6.69;100.00
76022;BME280;64718;52.124;6.226;2023-02-22T01:27:35;101530.91;;;6.65;100.00
76022;BME280;64718;52.124;6.226;2023-02-22T01:30:04;101527.44;;;6.66;100.00
76022;BME280;64718;52.124;6.226;2023-02-22T01:32:33;101525.72;;;6.65;100.00
76022;BME280;64718;52.124;6.226;2023-02-22T01:35:00;101533.59;;;6.59;100.00
76022;BME280;64718;52.124;6.226;2023-02-22T01:37:29;101521.47;;;6.62;100.00
76022;BME280;64718;52.124;6.226;2023-02-22T01:39:57;101520.63;;;6.62;100.00
76022;BME280;64718;52.124;6.226;2023-02-22T01:42:24;101510.31;;;6.59;100.00
76022;BME280;64718;52.124;6.226;2023-02-22T01:47:52;101508.59;;;6.59;100.00
76022;BME280;64718;52.124;6.226;2023-02-22T01:50:19;101496.53;;;6.60;100.00
76022;BME280;64718;52.124;6.226;2023-02-22T01:52:45;101502.44;;;6.66;100.00
76022;BME280;64718;52.124;6.226;2023-02-22T01:55:14;101503.41;;;6.61;100.00
76022;BME280;64718;52.124;6.226;2023-02-22T01:57:43;101506.91;;;6.57;100.00
76022;BME280;64718;52.124;6.226;2023-02-22T02:00:12;101500.03;;;6.56;100.00
76022;BME280;64718;52.124;6.226;2023-02-22T02:02:45;101505.22;;;6.54;100.00
76022;BME280;64718;52.124;6.226;2023-02-22T02:05:13;101500.09;;;6.51;100.00
76022;BME280;64718;52.124;6.226;2023-02-22T02:07:40;101498.31;;;6.55;100.00
76022;BME280;64718;52.124;6.226;2023-02-22T02:10:11;101490.66;;;6.50;100.00
76022;BME280;64718;52.124;6.226;2023-02-22T02:12:43;101494.13;;;6.48;100.00
76022;BME280;64718;52.124;6.226;2023-02-22T02:15:18;101482.09;;;6.47;100.00
76022;BME280;64718;52.124;6.226;2023-02-22T02:17:45;101486.34;;;6.49;100.00
76022;BME280;64718;52.124;6.226;2023-02-22T02:20:16;101482.13;;;6.45;100.00
76022;BME280;64718;52.124;6.226;2023-02-22T02:22:50;101473.34;;;6.55;100.00
76022;BME280;64718;52.124;6.226;2023-02-22T02:25:35;101473.44;;;6.49;100.00
76022;BME280;64718;52.124;6.226;2023-02-22T02:28:52;101468.38;;;6.42;100.00
76022;BME280;64718;52.124;6.226;2023-02-22T02:31:57;101473.59;;;6.39;100.00
76022;BME280;64718;52.124;6.226;2023-02-22T02:34:33;101470.16;;;6.40;100.00
76022;BME280;64718;52.124;6.226;2023-02-22T02:37:08;101469.34;;;6.36;100.00
76022;BME280;64718;52.124;6.226;2023-02-22T02:39:40;101477.97;;;6.32;100.00
76022;BME280;64718;52.124;6.226;2023-02-22T02:42:11;101465.97;;;6.29;100.00
76022;BME280;64718;52.124;6.226;2023-02-22T02:44:42;101465.97;;;6.28;100.00
76022;BME280;64718;52.124;6.226;2023-02-22T02:47:16;101474.69;;;6.22;100.00
76022;BME280;64718;52.124;6.226;2023-02-22T02:49:49;101472.19;;;6.16;100.00
76022;BME280;64718;52.124;6.226;2023-02-22T02:52:18;101457.59;;;6.14;100.00
76022;BME280;64718;52.124;6.226;2023-02-22T02:54:47;101454.94;;;6.18;100.00
76022;BME280;64718;52.124;6.226;2023-02-22T02:57:16;101450.69;;;6.14;100.00
76022;BME280;64718;52.124;6.226;2023-02-22T02:59:42;101453.38;;;6.08;100.00
76022;BME280;64718;52.124;6.226;2023-02-22T03:02:22;101449.03;;;6.10;100.00
76022;BME280;64718;52.124;6.226;2023-02-22T03:05:10;101447.44;;;6.01;100.00
76022;BME280;64718;52.124;6.226;2023-02-22T03:07:48;101447.47;;;5.98;100.00
76022;BME280;64718;52.124;6.226;2023-02-22T03:10:26;101438.94;;;5.93;100.00
76022;BME280;64718;52.124;6.226;2023-02-22T03:13:04;101440.69;;;5.93;100.00
76022;BME280;64718;52.124;6.226;2023-02-22T03:15:41;101429.44;;;5.95;100.00
76022;BME280;64718;52.124;6.226;2023-02-22T03:18:14;101426.88;;;5.95;100.00
76022;BME280;64718;52.124;6.226;2023-02-22T03:20:49;101427.81;;;5.88;100.00
76022;BME280;64718;52.124;6.226;2023-02-22T03:23:22;101426.97;;;5.89;100.00
76022;BME280;64718;52.124;6.226;2023-02-22T03:25:54;101429.53;;;5.89;100.00
76022;BME280;64718;52.124;6.226;2023-02-22T03:28:25;101432.97;;;5.88;100.00
76022;BME280;64718;52.124;6.226;2023-02-22T03:30:57;101426.97;;;5.89;100.00
76022;BME280;64718;52.124;6.226;2023-02-22T03:33:29;101422.59;;;5.94;100.00
76022;BME280;64718;52.124;6.226;2023-02-22T03:36:00;101419.97;;;5.96;100.00
76022;BME280;64718;52.124;6.226;2023-02-22T03:38:31;101427.81;;;5.90;100.00
76022;BME280;64718;52.124;6.226;2023-02-22T03:41:00;101424.38;;;5.89;100.00
76022;BME280;64718;52.124;6.226;2023-02-22T03:43:28;101423.50;;;5.87;100.00
76022;BME280;64718;52.124;6.226;2023-02-22T03:45:57;101421.78;;;5.88;100.00
76022;BME280;64718;52.124;6.226;2023-02-22T03:48:34;101417.53;;;5.84;100.00
76022;BME280;64718;52.124;6.226;2023-02-22T03:51:03;101428.72;;;5.84;100.00
76022;BME280;64718;52.124;6.226;2023-02-22T03:53:31;101422.72;;;5.82;100.00
76022;BME280;64718;52.124;6.226;2023-02-22T03:56:02;101423.63;;;5.78;100.00
76022;BME280;64718;52.124;6.226;2023-02-22T03:58:33;101418.44;;;5.81;100.00
76022;BME280;64718;52.124;6.226;2023-02-22T04:01:01;101424.44;;;5.83;100.00
76022;BME280;64718;52.124;6.226;2023-02-22T04:03:29;101420.16;;;5.81;100.00
76022;BME280;64718;52.124;6.226;2023-02-22T04:05:56;101421.88;;;5.80;100.00
76022;BME280;64718;52.124;6.226;2023-02-22T04:08:22;101420.19;;;5.79;100.00
76022;BME280;64718;52.124;6.226;2023-02-22T04:10:49;101415.84;;;5.83;100.00
76022;BME280;64718;52.124;6.226;2023-02-22T04:13:16;101415.81;;;5.84;100.00
76022;BME280;64718;52.124;6.226;2023-02-22T04:15:42;101419.28;;;5.82;100.00
76022;BME280;64718;52.124;6.226;2023-02-22T04:18:09;101404.63;;;5.85;100.00
76022;BME280;64718;52.124;6.226;2023-02-22T04:20:37;101411.53;;;5.83;100.00
76022;BME280;64718;52.124;6.226;2023-02-22T04:23:03;101404.56;;;5.88;100.00
76022;BME280;64718;52.124;6.226;2023-02-22T04:25:31;101398.63;;;5.82;100.00
76022;BME280;64718;52.124;6.226;2023-02-22T04:27:58;101396.06;;;5.82;100.00
76022;BME280;64718;52.124;6.226;2023-02-22T04:30:24;101389.94;;;5.90;100.00
76022;BME280;64718;52.124;6.226;2023-02-22T04:32:52;101390.84;;;5.86;100.00
76022;BME280;64718;52.124;6.226;2023-02-22T04:35:19;101389.94;;;5.89;100.00
76022;BME280;64718;52.124;6.226;2023-02-22T04:37:47;101396.91;;;5.82;100.00
76022;BME280;64718;52.124;6.226;2023-02-22T04:40:15;101389.94;;;5.87;100.00
76022;BME280;64718;52.124;6.226;2023-02-22T04:42:42;101387.53;;;5.73;100.00
76022;BME280;64718;52.124;6.226;2023-02-22T04:45:09;101383.19;;;5.79;100.00
76022;BME280;64718;52.124;6.226;2023-02-22T04:47:36;101380.56;;;5.82;100.00
76022;BME280;64718;52.124;6.226;2023-02-22T04:50:03;101383.13;;;5.83;100.00
76022;BME280;64718;52.124;6.226;2023-02-22T04:52:30;101375.47;;;5.79;100.00
76022;BME280;64718;52.124;6.226;2023-02-22T04:54:58;101381.47;;;5.76;100.00
76022;BME280;64718;52.124;6.226;2023-02-22T04:57:24;101379.75;;;5.80;100.00
76022;BME280;64718;52.124;6.226;2023-02-22T04:59:51;101375.44;;;5.77;100.00
76022;BME280;64718;52.124;6.226;2023-02-22T05:02:18;101370.28;;;5.77;100.00
76022;BME280;64718;52.124;6.226;2023-02-22T05:04:45;101365.97;;;5.81;100.00
76022;BME280;64718;52.124;6.226;2023-02-22T05:07:11;101368.59;;;5.75;100.00
76022;BME280;64718;52.124;6.226;2023-02-22T05:09:38;101363.47;;;5.71;100.00
76022;BME280;64718;52.124;6.226;2023-02-22T05:12:06;101360.94;;;5.68;100.00
76022;BME280;64718;52.124;6.226;2023-02-22T05:14:33;101356.63;;;5.69;100.00
76022;BME280;64718;52.124;6.226;2023-02-22T05:17:00;101356.59;;;5.72;100.00
76022;BME280;64718;52.124;6.226;2023-02-22T05:19:27;101358.38;;;5.67;100.00
76022;BME280;64718;52.124;6.226;2023-02-22T05:21:53;101352.41;;;5.63;100.00
76022;BME280;64718;52.124;6.226;2023-02-22T05:24:21;101347.31;;;5.59;100.00
76022;BME280;64718;52.124;6.226;2023-02-22T05:26:47;101351.69;;;5.55;100.00
76022;BME280;64718;52.124;6.226;2023-02-22T05:29:16;101353.59;;;5.41;100.00
76022;BME280;64718;52.124;6.226;2023-02-22T05:31:43;101349.25;;;5.43;100.00
76022;BME280;64718;52.124;6.226;2023-02-22T05:34:09;101350.13;;;5.42;100.00
76022;BME280;64718;52.124;6.226;2023-02-22T05:36:36;101343.34;;;5.35;100.00
76022;BME280;64718;52.124;6.226;2023-02-22T05:39:03;101344.28;;;5.31;100.00
76022;BME280;64718;52.124;6.226;2023-02-22T05:41:30;101335.69;;;5.29;100.00
76022;BME280;64718;52.124;6.226;2023-02-22T05:43:57;101334.88;;;5.25;100.00
76022;BME280;64718;52.124;6.226;2023-02-22T05:46:25;101327.22;;;5.18;100.00
76022;BME280;64718;52.124;6.226;2023-02-22T05:48:51;101323.81;;;5.14;100.00
76022;BME280;64718;52.124;6.226;2023-02-22T05:51:18;101328.16;;;5.11;100.00
76022;BME280;64718;52.124;6.226;2023-02-22T05:53:45;101326.50;;;5.06;100.00
76022;BME280;64718;52.124;6.226;2023-02-22T05:56:11;101334.19;;;5.09;100.00
76022;BME280;64718;52.124;6.226;2023-02-22T05:58:38;101325.56;;;5.12;100.00
76022;BME280;64718;52.124;6.226;2023-02-22T06:01:04;101328.13;;;5.14;100.00
76022;BME280;64718;52.124;6.226;2023-02-22T06:03:32;101326.41;;;5.14;100.00
76022;BME280;64718;52.124;6.226;2023-02-22T06:05:59;101329.78;;;5.19;100.00
76022;BME280;64718;52.124;6.226;2023-02-22T06:08:25;101327.16;;;5.24;100.00
76022;BME280;64718;52.124;6.226;2023-02-22T06:10:52;101324.56;;;5.27;100.00
76022;BME280;64718;52.124;6.226;2023-02-22T06:13:18;101321.13;;;5.26;100.00
76022;BME280;64718;52.124;6.226;2023-02-22T06:15:45;101320.38;;;5.15;100.00
76022;BME280;64718;52.124;6.226;2023-02-22T06:18:12;101320.38;;;5.15;100.00
76022;BME280;64718;52.124;6.226;2023-02-22T06:20:39;101317.75;;;5.18;100.00
76022;BME280;64718;52.124;6.226;2023-02-22T06:23:06;101311.81;;;5.13;100.00
76022;BME280;64718;52.124;6.226;2023-02-22T06:25:33;101310.09;;;5.14;100.00
76022;BME280;64718;52.124;6.226;2023-02-22T06:28:01;101304.88;;;5.18;100.00
76022;BME280;64718;52.124;6.226;2023-02-22T06:30:29;101299.75;;;5.15;100.00
76022;BME280;64718;52.124;6.226;2023-02-22T06:32:55;101302.31;;;5.17;100.00
76022;BME280;64718;52.124;6.226;2023-02-22T06:35:22;101309.19;;;5.16;100.00
76022;BME280;64718;52.124;6.226;2023-02-22T06:37:50;101298.00;;;5.20;100.00
76022;BME280;64718;52.124;6.226;2023-02-22T06:40:17;101307.47;;;5.15;100.00
76022;BME280;64718;52.124;6.226;2023-02-22T06:42:46;101310.13;;;5.11;100.00
76022;BME280;64718;52.124;6.226;2023-02-22T06:45:15;101312.81;;;5.01;100.00
76022;BME280;64718;52.124;6.226;2023-02-22T06:47:41;101320.53;;;5.03;100.00
76022;BME280;64718;52.124;6.226;2023-02-22T06:50:17;101323.09;;;5.03;100.00
76022;BME280;64718;52.124;6.226;2023-02-22T06:52:45;101314.38;;;5.13;100.00
76022;BME280;64718;52.124;6.226;2023-02-22T06:55:19;101314.34;;;5.16;100.00
76022;BME280;64718;52.124;6.226;2023-02-22T06:57:46;101311.75;;;5.16;100.00
76022;BME280;64718;52.124;6.226;2023-02-22T07:00:15;101309.16;;;5.18;100.00
76022;BME280;64718;52.124;6.226;2023-02-22T07:02:43;101311.75;;;5.18;100.00
76022;BME280;64718;52.124;6.226;2023-02-22T07:05:10;101316.91;;;5.21;100.00
76022;BME280;64718;52.124;6.226;2023-02-22T07:07:37;101315.97;;;5.25;100.00
76022;BME280;64718;52.124;6.226;2023-02-22T07:10:05;101304.72;;;5.32;100.00
76022;BME280;64718;52.124;6.226;2023-02-22T07:12:33;101315.09;;;5.27;100.00
76022;BME280;64718;52.124;6.226;2023-02-22T07:15:00;101317.63;;;5.30;100.00
76022;BME280;64718;52.124;6.226;2023-02-22T07:17:27;101308.94;;;5.37;100.00
76022;BME280;64718;52.124;6.226;2023-02-22T07:19:53;101305.53;;;5.35;100.00
76022;BME280;64718;52.124;6.226;2023-02-22T07:22:20;101308.91;;;5.39;100.00
76022;BME280;64718;52.124;6.226;2023-02-22T07:24:46;101305.47;;;5.38;100.00
76022;BME280;64718;52.124;6.226;2023-02-22T07:27:13;101304.63;;;5.38;100.00
76022;BME280;64718;52.124;6.226;2023-02-22T07:29:42;101301.97;;;5.43;100.00
76022;BME280;64718;52.124;6.226;2023-02-22T07:32:11;101300.28;;;5.42;100.00
76022;BME280;64718;52.124;6.226;2023-02-22T07:34:37;101289.94;;;5.43;100.00
76022;BME280;64718;52.124;6.226;2023-02-22T07:37:04;101290.75;;;5.45;100.00
76022;BME280;64718;52.124;6.226;2023-02-22T07:39:30;101295.91;;;5.47;100.00
76022;BME280;64718;52.124;6.226;2023-02-22T07:41:58;101301.84;;;5.52;100.00
76022;BME280;64718;52.124;6.226;2023-02-22T07:44:25;101300.13;;;5.52;100.00
76022;BME280;64718;52.124;6.226;2023-02-22T07:46:53;101302.75;;;5.48;100.00
76022;BME280;64718;52.124;6.226;2023-02-22T07:49:19;101299.25;;;5.52;100.00
76022;BME280;64718;52.124;6.226;2023-02-22T07:51:46;101301.84;;;5.52;100.00
76022;BME280;64718;52.124;6.226;2023-02-22T07:54:12;101303.56;;;5.53;100.00
76022;BME280;64718;52.124;6.226;2023-02-22T07:56:43;101304.44;;;5.50;100.00
76022;BME280;64718;52.124;6.226;2023-02-22T07:59:10;101305.31;;;5.51;100.00
76022;BME280;64718;52.124;6.226;2023-02-22T08:01:36;101300.13;;;5.52;100.00
76022;BME280;64718;52.124;6.226;2023-02-22T08:04:05;101298.44;;;5.50;100.00
76022;BME280;64718;52.124;6.226;2023-02-22T08:06:31;101298.34;;;5.56;100.00
76022;BME280;64718;52.124;6.226;2023-02-22T08:08:58;101300.88;;;5.59;100.00
76022;BME280;64718;52.124;6.226;2023-02-22T08:11:25;101293.97;;;5.61;100.00
76022;BME280;64718;52.124;6.226;2023-02-22T08:13:52;101297.34;;;5.66;100.00
76022;BME280;64718;52.124;6.226;2023-02-22T08:16:18;101295.72;;;5.59;100.00
76022;BME280;64718;52.124;6.226;2023-02-22T08:18:45;101293.94;;;5.64;100.00
76022;BME280;64718;52.124;6.226;2023-02-22T08:21:13;101295.59;;;5.68;100.00
76022;BME280;64718;52.124;6.226;2023-02-22T08:23:39;101285.28;;;5.66;100.00
76022;BME280;64718;52.124;6.226;2023-02-22T08:26:07;101279.25;;;5.67;100.00
76022;BME280;64718;52.124;6.226;2023-02-22T08:28:33;101282.53;;;5.77;100.00
76022;BME280;64718;52.124;6.226;2023-02-22T08:31:00;101280.88;;;5.73;100.00
76022;BME280;64718;52.124;6.226;2023-02-22T08:33:27;101275.59;;;5.82;100.00
76022;BME280;64718;52.124;6.226;2023-02-22T08:35:54;101277.22;;;5.88;100.00
76022;BME280;64718;52.124;6.226;2023-02-22T08:38:24;101281.44;;;5.95;100.00
76022;BME280;64718;52.124;6.226;2023-02-22T08:40:51;101276.19;;;6.01;100.00
76022;BME280;64718;52.124;6.226;2023-02-22T08:43:19;101288.91;;;6.12;100.00
76022;BME280;64718;52.124;6.226;2023-02-22T08:45:46;101282.94;;;6.08;100.00
76022;BME280;64718;52.124;6.226;2023-02-22T08:48:13;101286.47;;;6.02;100.00
76022;BME280;64718;52.124;6.226;2023-02-22T08:50:40;101277.16;;;5.94;100.00
76022;BME280;64718;52.124;6.226;2023-02-22T08:53:11;101275.41;;;5.96;100.00
76022;BME280;64718;52.124;6.226;2023-02-22T08:55:40;101284.81;;;6.00;100.00
76022;BME280;64718;52.124;6.226;2023-02-22T08:58:07;101294.22;;;6.02;100.00
76022;BME280;64718;52.124;6.226;2023-02-22T09:00:35;101287.38;;;6.00;100.00
76022;BME280;64718;52.124;6.226;2023-02-22T09:03:04;101279.75;;;5.94;100.00
76022;BME280;64718;52.124;6.226;2023-02-22T09:05:30;101273.91;;;5.80;100.00
76022;BME280;64718;52.124;6.226;2023-02-22T09:07:57;101272.88;;;5.93;100.00
76022;BME280;64718;52.124;6.226;2023-02-22T09:10:26;101278.06;;;5.91;100.00
76022;BME280;64718;52.124;6.226;2023-02-22T09:12:54;101272.06;;;5.89;100.00
76022;BME280;64718;52.124;6.226;2023-02-22T09:15:22;101276.38;;;5.87;100.00
76022;BME280;64718;52.124;6.226;2023-02-22T09:17:49;101271.16;;;5.93;100.00
76022;BME280;64718;52.124;6.226;2023-02-22T09:20:17;101277.91;;;6.00;100.00
76022;BME280;64718;52.124;6.226;2023-02-22T09:22:44;101275.97;;;6.13;100.00
76022;BME280;64718;52.124;6.226;2023-02-22T09:25:11;101280.28;;;6.13;100.00
76022;BME280;64718;52.124;6.226;2023-02-22T09:27:37;101284.19;;;6.35;100.00
76022;BME280;64718;52.124;6.226;2023-02-22T09:30:07;101281.41;;;6.47;100.00
76022;BME280;64718;52.124;6.226;2023-02-22T09:32:35;101277.00;;;6.52;100.00
76022;BME280;64718;52.124;6.226;2023-02-22T09:35:02;101277.19;;;6.42;100.00
76022;BME280;64718;52.124;6.226;2023-02-22T09:37:28;101281.31;;;6.52;100.00
76022;BME280;64718;52.124;6.226;2023-02-22T09:39:55;101262.44;;;6.48;100.00
76022;BME280;64718;52.124;6.226;2023-02-22T09:42:27;101262.53;;;6.44;100.00
76022;BME280;64718;52.124;6.226;2023-02-22T09:45:02;101260.47;;;6.61;100.00
76022;BME280;64718;52.124;6.226;2023-02-22T09:47:37;101259.84;;;6.48;100.00
76022;BME280;64718;52.124;6.226;2023-02-22T09:50:07;101258.56;;;6.69;100.00
76022;BME280;64718;52.124;6.226;2023-02-22T09:52:45;101252.53;;;6.70;100.00
76022;BME280;64718;52.124;6.226;2023-02-22T09:55:27;101241.59;;;6.57;100.00
76022;BME280;64718;52.124;6.226;2023-02-22T09:57:57;101244.19;;;6.56;100.00
76022;BME280;64718;52.124;6.226;2023-02-22T10:00:28;101247.16;;;6.79;100.00
76022;BME280;64718;52.124;6.226;2023-02-22T10:03:07;101239.06;;;6.97;100.00
76022;BME280;64718;52.124;6.226;2023-02-22T10:05:40;101239.97;;;6.95;100.00
76022;BME280;64718;52.124;6.226;2023-02-22T10:08:11;101241.53;;;7.02;100.00
76022;BME280;64718;52.124;6.226;2023-02-22T10:10:39;101246.28;;;7.22;100.00
76022;BME280;64718;52.124;6.226;2023-02-22T10:13:15;101240.09;;;7.27;100.00
76022;BME280;64718;52.124;6.226;2023-02-22T10:15:50;101240.84;;;7.33;100.00
76022;BME280;64718;52.124;6.226;2023-02-22T10:18:39;101242.91;;;7.57;100.00
76022;BME280;64718;52.124;6.226;2023-02-22T10:21:17;101234.63;;;7.41;100.00
76022;BME280;64718;52.124;6.226;2023-02-22T10:23:51;101238.72;;;7.13;100.00
76022;BME280;64718;52.124;6.226;2023-02-22T10:26:23;101231.34;;;7.33;100.00
76022;BME280;64718;52.124;6.226;2023-02-22T10:28:53;101226.75;;;7.46;100.00
76022;BME280;64718;52.124;6.226;2023-02-22T10:31:26;101224.75;;;7.58;100.00
76022;BME280;64718;52.124;6.226;2023-02-22T10:33:59;101228.81;;;7.69;100.00
76022;BME280;64718;52.124;6.226;2023-02-22T10:36:27;101239.28;;;7.64;100.00
76022;BME280;64718;52.124;6.226;2023-02-22T10:38:56;101236.84;;;7.58;100.00
76022;BME280;64718;52.124;6.226;2023-02-22T10:41:27;101230.31;;;7.77;100.00
76022;BME280;64718;52.124;6.226;2023-02-22T10:43:55;101229.53;;;7.74;100.00
76022;BME280;64718;52.124;6.226;2023-02-22T10:46:24;101231.72;;;7.90;100.00
76022;BME280;64718;52.124;6.226;2023-02-22T10:48:59;101232.00;;;8.14;100.00
76022;BME280;64718;52.124;6.226;2023-02-22T10:51:27;101226.00;;;8.12;100.00
76022;BME280;64718;52.124;6.226;2023-02-22T10:54:17;101226.59;;;8.21;100.00
76022;BME280;64718;52.124;6.226;2023-02-22T10:56:46;101213.09;;;8.43;100.00
76022;BME280;64718;52.124;6.226;2023-02-22T10:59:25;101217.41;;;8.42;100.00
76022;BME280;64718;52.124;6.226;2023-02-22T11:01:52;101209.56;;;8.76;100.00
76022;BME280;64718;52.124;6.226;2023-02-22T11:04:20;101203.94;;;8.61;100.00
76022;BME280;64718;52.124;6.226;2023-02-22T11:06:58;101197.91;;;8.60;100.00
76022;BME280;64718;52.124;6.226;2023-02-22T11:09:45;101196.66;;;8.44;100.00
76022;BME280;64718;52.124;6.226;2023-02-22T11:12:17;101193.66;;;8.57;100.00
76022;BME280;64718;52.124;6.226;2023-02-22T11:14:44;101176.59;;;8.80;100.00
76022;BME280;64718;52.124;6.226;2023-02-22T11:17:17;101180.03;;;8.80;100.00
76022;BME280;64718;52.124;6.226;2023-02-22T11:19:47;101177.34;;;8.83;100.00
76022;BME280;64718;52.124;6.226;2023-02-22T11:22:20;101174.16;;;9.03;100.00
76022;BME280;64718;52.124;6.226;2023-02-22T11:24:49;101175.91;;;9.03;100.00
76022;BME280;64718;52.124;6.226;2023-02-22T11:27:24;101159.69;;;8.96;100.00
76022;BME280;64718;52.124;6.226;2023-02-22T11:29:54;101159.78;;;8.93;100.00
76022;BME280;64718;52.124;6.226;2023-02-22T11:32:21;101161.03;;;9.08;100.00
76022;BME280;64718;52.124;6.226;2023-02-22T11:34:50;101158.78;;;8.97;100.00
76022;BME280;64718;52.124;6.226;2023-02-22T11:37:29;101160.00;;;9.13;100.00
76022;BME280;64718;52.124;6.226;2023-02-22T11:40:12;101151.59;;;9.33;100.00
76022;BME280;64718;52.124;6.226;2023-02-22T11:42:42;101143.16;;;9.27;100.00
76022;BME280;64718;52.124;6.226;2023-02-22T11:45:11;101151.97;;;9.21;100.00
76022;BME280;64718;52.124;6.226;2023-02-22T11:47:48;101143.91;;;9.57;100.00
76022;BME280;64718;52.124;6.226;2023-02-22T11:50:25;101144.84;;;9.79;99.34
76022;BME280;64718;52.124;6.226;2023-02-22T11:52:59;101144.97;;;9.76;98.05
76022;BME280;64718;52.124;6.226;2023-02-22T11:55:34;101142.44;;;9.99;97.58
76022;BME280;64718;52.124;6.226;2023-02-22T11:58:12;101141.25;;;10.08;96.03
76022;BME280;64718;52.124;6.226;2023-02-22T12:00:49;101136.22;;;10.03;96.13
76022;BME280;64718;52.124;6.226;2023-02-22T12:03:27;101143.97;;;10.05;94.86
76022;BME280;64718;52.124;6.226;2023-02-22T12:06:13;101150.19;;;10.01;96.96
76022;BME280;64718;52.124;6.226;2023-02-22T12:08:50;101137.03;;;10.05;97.02
76022;BME280;64718;52.124;6.226;2023-02-22T12:11:22;101129.94;;;10.34;97.15
76022;BME280;64718;52.124;6.226;2023-02-22T12:14:09;101137.84;;;10.31;96.56
76022;BME280;64718;52.124;6.226;2023-02-22T12:16:51;101143.53;;;10.17;95.44
76022;BME280;64718;52.124;6.226;2023-02-22T12:19:28;101151.06;;;10.25;96.64
76022;BME280;64718;52.124;6.226;2023-02-22T12:22:00;101131.53;;;10.38;97.12
76022;BME280;64718;52.124;6.226;2023-02-22T12:24:34;101136.25;;;10.52;95.93
76022;BME280;64718;52.124;6.226;2023-02-22T12:27:06;101129.81;;;10.37;96.85
76022;BME280;64718;52.124;6.226;2023-02-22T12:29:38;101130.00;;;10.32;95.83
76022;BME280;64718;52.124;6.226;2023-02-22T12:32:11;101136.09;;;10.31;96.30
76022;BME280;64718;52.124;6.226;2023-02-22T12:34:42;101138.81;;;10.28;97.23
76022;BME280;64718;52.124;6.226;2023-02-22T12:37:15;101133.28;;;10.37;96.40
76022;BME280;64718;52.124;6.226;2023-02-22T12:39:55;101127.94;;;10.42;95.75
76022;BME280;64718;52.124;6.226;2023-02-22T12:42:29;101131.94;;;10.51;96.39
76022;BME280;64718;52.124;6.226;2023-02-22T12:45:02;101131.44;;;10.41;96.76
76022;BME280;64718;52.124;6.226;2023-02-22T12:47:36;101125.47;;;10.61;96.62
76022;BME280;64718;52.124;6.226;2023-02-22T12:50:12;101119.72;;;10.53;96.33
76022;BME280;64718;52.124;6.226;2023-02-22T12:52:46;101116.31;;;10.74;96.99
76022;BME280;64718;52.124;6.226;2023-02-22T12:55:20;101116.25;;;10.75;96.56
76022;BME280;64718;52.124;6.226;2023-02-22T12:57:54;101114.53;;;10.74;95.78
76022;BME280;64718;52.124;6.226;2023-02-22T13:00:26;101112.31;;;10.87;94.58
76022;BME280;64718;52.124;6.226;2023-02-22T13:02:56;101113.75;;;11.16;95.40
76022;BME280;64718;52.124;6.226;2023-02-22T13:05:24;101112.63;;;11.44;95.68
76022;BME280;64718;52.124;6.226;2023-02-22T13:08:04;101110.97;;;11.63;94.84